Airfield :
LOGIN :

Register | Disclaimer

   EN    FR    IT 

 










Legend :    VFR   Marginal VFR   IFR   Intensive IFR   Very Intensive IFR
Visi :
Ceiling :
>= 8 km
>= 3000ft
5 to 8 km
1000 to 3000 ft
1500m to 5 km
500 to 1000 ft
800 to 1500m
200 to 500 ft
< 800m
< 200 ft
Symbols :   Thunderstorms  Fog  Heavy snow  Heavy precipitations  Wind > 20 kt
SIGMETs :     Misc.  Thunderstorms  Icing  Turbulence  Mountain Waves  Volcanic Ashes






- Airport Elevation : 19 ft
- IATA code : LCY


EGLC - London City

CURRENT METAR :
  • 070750Z AUTO 23009KT 9999 NCD 15/11 Q1021

EXPIRED METARs :
  • 070720Z AUTO 22008KT 190V260 9999 BKN044 14/11 Q1021
  • 070650Z AUTO VRB08G18KT 9999 BKN045 14/11 Q1022
  • 070620Z AUTO 22007G17KT 190V250 9999 BKN039 14/11 Q1022
  • 070550Z AUTO 23007KT 200V260 9999 SCT039 13/11 Q1022
  • 070520Z AUTO 23007KT 9999 FEW021 SCT032 BKN046 14/12 Q1022

TAF TAF EGLC
Valid from the 07 at 06:00 until the 07 at 15:00 UTC


070500Z 0706/0715 22010KT 9999 SCT035
PROB30
TEMPO 0706/0715 8000 SHRA
PROB40
TEMPO 0710/0715 23015G26KT
ATIS : +44 20 7646 0224



MET'MAP, your aeronautical weather chart ! - Copyright ORBIFLY December 2007 - Disclaimer

ORBIFLY MET'MAP TEAM :

Programming & Development : Alexandra Zaïnal
Original concept : Baudouin d'Aumeries
Technical & hardware support : Manuel Goepfert
Assistance : Marc-Olivier Méhu




SOURCES & CREDITS :

   NOAA